Nottingham, Pennsylvania
Current Conditions -  °F | °C
As of 2:35 PM on Friday 24 Oct 2014 (Local Time) from KMQS Reporting Station
Clear Clear  
Wind Chill: 64°   Ceiling: Unl
Heat Index: 64°   Visibility: 10mi
Dew Point: 45°   Wind: 14mph
Humidity: 49%   Direction: 320°NW
Pressure: 29.85"   Gusts: NA
Location:  39.76°N, 76.01°W
Report Text: KMQS 241835Z AUTO 32012KT 10SM CLR 18/07 A2985 RMK AO2
Loading
Personal Weather Stations






























Interactive Weather Map
Tropical Storm Tracking
New forecast layout! Learn more

10-Day Weather Forecast

Advertisements
Track Severe Weather on mobile